Kitty C — 2EIQ6 — position and weather

sailwx.info

Track history (hours):
 
Tides and Currents Weather Stations Pressure Air Temp Water Temp Dewpoint Dewpoint Depression Visibility Wind Speed Wind Dir Waves Ship Positions

Kitty C

Last reported at 2015-Sep-03 22:32 UTC. Time now 2015-Sep-04 01:37 UTC.
Position N 38°08' W 023°59'.

Length 106 m; draft 4.2 m.

Type: Ship. MMSI: 235085464.

Date/timePositionNaut miles runAvg speedWind from/ knotsBaromVisibWave heightAir tempDewpointWater temp
2015-Sep-03 22:32N 38°08' W 023°59'9 9.2
2015-Sep-03 21:34N 38°03' W 024°09'9 9.2
2015-Sep-03 20:33N 37°58' W 024°19'10 9.7
2015-Sep-03 19:33N 37°54' W 024°29'1010.2
2015-Sep-03 18:34N 37°49' W 024°41'1010.0
2015-Sep-03 17:34N 37°44' W 024°52'1010.1
2015-Sep-03 16:33N 37°40' W 025°03'1111.0
2015-Sep-03 15:33N 37°40' W 025°17'1110.6
2015-Sep-03 14:34N 37°40' W 025°31'8 7.9
2015-Sep-03 13:31N 37°44' W 025°40'0 0.0
2015-Sep-03 12:31N 37°44' W 025°40'0 0.0
2015-Sep-03 11:31N 37°44' W 025°40'0 0.0
2015-Sep-03 10:31N 37°44' W 025°40'0 0.0
2015-Sep-03 09:31N 37°44' W 025°40'0 0.0
2015-Sep-03 08:31N 37°44' W 025°40'0 0.0
2015-Sep-03 07:31N 37°44' W 025°40'0 0.0
2015-Sep-03 06:31N 37°44' W 025°40'0 0.0
2015-Sep-03 05:28N 37°44' W 025°40'0 0.0
2015-Sep-03 04:31N 37°44' W 025°40'0 0.0
2015-Sep-03 03:31N 37°44' W 025°40'0 0.0
2015-Sep-03 02:31N 37°44' W 025°40'0 0.0
2015-Sep-03 01:31N 37°44' W 025°40'0 0.0
2015-Sep-03 00:31N 37°44' W 025°40'0 0.0
2015-Sep-02 23:31N 37°44' W 025°40'0 0.0
2015-Sep-02 22:31N 37°44' W 025°40'0 0.0
2015-Sep-02 21:31N 37°44' W 025°40'0 0.0
2015-Sep-02 20:31N 37°44' W 025°40'0 0.0
2015-Sep-02 19:31N 37°44' W 025°40'0 0.0
2015-Sep-02 18:31N 37°44' W 025°40'0 0.0
2015-Sep-02 17:31N 37°44' W 025°40'0 0.0
2015-Sep-02 16:31N 37°44' W 025°40'0 0.0
2015-Sep-02 15:31N 37°44' W 025°40'0 0.0
2015-Sep-02 14:31N 37°44' W 025°40'0 0.0
2015-Sep-02 13:31N 37°44' W 025°40'0 0.0
2015-Sep-02 12:31N 37°44' W 025°40'0 0.0
2015-Sep-02 11:31N 37°44' W 025°40'0 0.0
2015-Sep-02 10:31N 37°44' W 025°40'0 0.0
2015-Sep-02 09:31N 37°44' W 025°40'0 0.0
2015-Sep-02 08:31N 37°44' W 025°40'0 0.0
2015-Sep-02 07:31N 37°44' W 025°40'0 0.0
2015-Sep-02 06:31N 37°44' W 025°40'0 0.0
2015-Sep-02 05:31N 37°44' W 025°40'0 0.0
2015-Sep-02 04:31N 37°44' W 025°40'0 0.0
2015-Sep-02 03:31N 37°44' W 025°40'0 0.0
2015-Sep-02 02:31N 37°44' W 025°40'0 0.0
2015-Sep-02 01:31N 37°44' W 025°40'0 0.0
2015-Sep-02 00:31N 37°44' W 025°40'0 0.0
2015-Sep-01 23:31N 37°44' W 025°40'0 0.0
2015-Sep-01 22:31N 37°44' W 025°40'0 0.0
2015-Sep-01 21:31N 37°44' W 025°40'0 0.0
2015-Sep-01 20:31N 37°44' W 025°40'0 0.0
2015-Sep-01 19:31N 37°44' W 025°40'0 0.0
2015-Sep-01 18:31N 37°44' W 025°40'0 0.0
2015-Sep-01 17:31N 37°44' W 025°40'0 0.0
2015-Sep-01 16:31N 37°44' W 025°40'0 0.0
2015-Sep-01 15:31N 37°44' W 025°40'0 0.0
2015-Sep-01 14:31N 37°44' W 025°40'0 0.0
2015-Sep-01 13:31N 37°44' W 025°40'0 0.0
2015-Sep-01 12:31N 37°44' W 025°40'0 0.0
2015-Sep-01 11:31N 37°44' W 025°40'0 0.0
2015-Sep-01 10:31N 37°44' W 025°40'0 0.0
2015-Sep-01 09:31N 37°44' W 025°40'0 0.0
2015-Sep-01 08:31N 37°44' W 025°40'0 0.0
2015-Sep-01 07:31N 37°44' W 025°40'0 0.0
2015-Sep-01 06:31N 37°44' W 025°40'0 0.0
2015-Sep-01 05:31N 37°44' W 025°40'0 0.0
2015-Sep-01 04:31N 37°44' W 025°40'0 0.0
2015-Sep-01 03:31N 37°44' W 025°40'0 0.0
2015-Sep-01 02:31N 37°44' W 025°40'0 0.0
2015-Sep-01 01:31N 37°44' W 025°40'0 0.0
2015-Sep-01 00:31N 37°44' W 025°40'0 0.0
2015-Aug-31 23:31N 37°44' W 025°40'0 0.0
2015-Aug-31 22:34N 37°44' W 025°40'2 1.8
2015-Aug-31 21:34N 37°43' W 025°38'9 8.5
2015-Aug-31 20:33N 37°40' W 025°28'9 8.5
2015-Aug-31 19:33N 37°40' W 025°17'9 9.2
2015-Aug-31 18:34N 37°40' W 025°05'8 8.3
2015-Aug-31 17:34N 37°42' W 024°55'8 8.4
2015-Aug-31 16:34N 37°46' W 024°46'9 9.3
2015-Aug-31 15:34N 37°51' W 024°36'1010.3
2015-Aug-31 14:33N 37°56' W 024°24'1010.2
2015-Aug-31 13:33N 38°01' W 024°13'1010.5
2015-Aug-31 12:33N 38°06' W 024°01'  
Track history (hours):
 
Tides and Currents Weather Stations Pressure Air Temp Water Temp Dewpoint Dewpoint Depression Visibility Wind Speed Wind Dir Waves Ship Positions

Kitty C

Last reported at 2015-Sep-03 22:32 UTC. Time now 2015-Sep-04 01:37 UTC.
Position N 38°08' W 023°59'.

Length 106 m; draft 4.2 m.

Type: Ship. MMSI: 235085464.

Date/timePositionNaut miles runAvg speedWind from/ knotsBaromVisibWave heightAir tempDewpointWater temp
2015-Sep-03 22:32N 38°08' W 023°59'9 9.2
2015-Sep-03 21:34N 38°03' W 024°09'9 9.2
2015-Sep-03 20:33N 37°58' W 024°19'10 9.7
2015-Sep-03 19:33N 37°54' W 024°29'1010.2
2015-Sep-03 18:34N 37°49' W 024°41'1010.0
2015-Sep-03 17:34N 37°44' W 024°52'1010.1
2015-Sep-03 16:33N 37°40' W 025°03'1111.0
2015-Sep-03 15:33N 37°40' W 025°17'1110.6
2015-Sep-03 14:34N 37°40' W 025°31'8 7.9
2015-Sep-03 13:31N 37°44' W 025°40'0 0.0
2015-Sep-03 12:31N 37°44' W 025°40'0 0.0
2015-Sep-03 11:31N 37°44' W 025°40'0 0.0
2015-Sep-03 10:31N 37°44' W 025°40'0 0.0
2015-Sep-03 09:31N 37°44' W 025°40'0 0.0
2015-Sep-03 08:31N 37°44' W 025°40'0 0.0
2015-Sep-03 07:31N 37°44' W 025°40'0 0.0
2015-Sep-03 06:31N 37°44' W 025°40'0 0.0
2015-Sep-03 05:28N 37°44' W 025°40'0 0.0
2015-Sep-03 04:31N 37°44' W 025°40'0 0.0
2015-Sep-03 03:31N 37°44' W 025°40'0 0.0
2015-Sep-03 02:31N 37°44' W 025°40'0 0.0
2015-Sep-03 01:31N 37°44' W 025°40'0 0.0
2015-Sep-03 00:31N 37°44' W 025°40'0 0.0
2015-Sep-02 23:31N 37°44' W 025°40'0 0.0
2015-Sep-02 22:31N 37°44' W 025°40'0 0.0
2015-Sep-02 21:31N 37°44' W 025°40'0 0.0
2015-Sep-02 20:31N 37°44' W 025°40'0 0.0
2015-Sep-02 19:31N 37°44' W 025°40'0 0.0
2015-Sep-02 18:31N 37°44' W 025°40'0 0.0
2015-Sep-02 17:31N 37°44' W 025°40'0 0.0
2015-Sep-02 16:31N 37°44' W 025°40'0 0.0
2015-Sep-02 15:31N 37°44' W 025°40'0 0.0
2015-Sep-02 14:31N 37°44' W 025°40'0 0.0
2015-Sep-02 13:31N 37°44' W 025°40'0 0.0
2015-Sep-02 12:31N 37°44' W 025°40'0 0.0
2015-Sep-02 11:31N 37°44' W 025°40'0 0.0
2015-Sep-02 10:31N 37°44' W 025°40'0 0.0
2015-Sep-02 09:31N 37°44' W 025°40'0 0.0
2015-Sep-02 08:31N 37°44' W 025°40'0 0.0
2015-Sep-02 07:31N 37°44' W 025°40'0 0.0
2015-Sep-02 06:31N 37°44' W 025°40'0 0.0
2015-Sep-02 05:31N 37°44' W 025°40'0 0.0
2015-Sep-02 04:31N 37°44' W 025°40'0 0.0
2015-Sep-02 03:31N 37°44' W 025°40'0 0.0
2015-Sep-02 02:31N 37°44' W 025°40'0 0.0
2015-Sep-02 01:31N 37°44' W 025°40'0 0.0
2015-Sep-02 00:31N 37°44' W 025°40'0 0.0
2015-Sep-01 23:31N 37°44' W 025°40'0 0.0
2015-Sep-01 22:31N 37°44' W 025°40'0 0.0
2015-Sep-01 21:31N 37°44' W 025°40'0 0.0
2015-Sep-01 20:31N 37°44' W 025°40'0 0.0
2015-Sep-01 19:31N 37°44' W 025°40'0 0.0
2015-Sep-01 18:31N 37°44' W 025°40'0 0.0
2015-Sep-01 17:31N 37°44' W 025°40'0 0.0
2015-Sep-01 16:31N 37°44' W 025°40'0 0.0
2015-Sep-01 15:31N 37°44' W 025°40'0 0.0
2015-Sep-01 14:31N 37°44' W 025°40'0 0.0
2015-Sep-01 13:31N 37°44' W 025°40'0 0.0
2015-Sep-01 12:31N 37°44' W 025°40'0 0.0
2015-Sep-01 11:31N 37°44' W 025°40'0 0.0
2015-Sep-01 10:31N 37°44' W 025°40'0 0.0
2015-Sep-01 09:31N 37°44' W 025°40'0 0.0
2015-Sep-01 08:31N 37°44' W 025°40'0 0.0
2015-Sep-01 07:31N 37°44' W 025°40'0 0.0
2015-Sep-01 06:31N 37°44' W 025°40'0 0.0
2015-Sep-01 05:31N 37°44' W 025°40'0 0.0
2015-Sep-01 04:31N 37°44' W 025°40'0 0.0
2015-Sep-01 03:31N 37°44' W 025°40'0 0.0
2015-Sep-01 02:31N 37°44' W 025°40'0 0.0
2015-Sep-01 01:31N 37°44' W 025°40'0 0.0
2015-Sep-01 00:31N 37°44' W 025°40'0 0.0
2015-Aug-31 23:31N 37°44' W 025°40'0 0.0
2015-Aug-31 22:34N 37°44' W 025°40'2 1.8
2015-Aug-31 21:34N 37°43' W 025°38'9 8.5
2015-Aug-31 20:33N 37°40' W 025°28'9 8.5
2015-Aug-31 19:33N 37°40' W 025°17'9 9.2
2015-Aug-31 18:34N 37°40' W 025°05'8 8.3
2015-Aug-31 17:34N 37°42' W 024°55'8 8.4
2015-Aug-31 16:34N 37°46' W 024°46'9 9.3
2015-Aug-31 15:34N 37°51' W 024°36'1010.3
2015-Aug-31 14:33N 37°56' W 024°24'1010.2
2015-Aug-31 13:33N 38°01' W 024°13'1010.5
2015-Aug-31 12:33N 38°06' W 024°01'  

Dump ship's entire track history